sensor_id;sensor_type;location;lat;lon;timestamp;pressure;altitude;pressure_sealevel;temperature;humidity
36260;BME280;22296;50.824;5.644;2023-01-25T00:00:27;102704.78;;;11.69;56.18
36260;BME280;22296;50.824;5.644;2023-01-25T00:02:53;102694.91;;;11.73;55.95
36260;BME280;22296;50.824;5.644;2023-01-25T00:05:20;102702.09;;;11.74;55.94
36260;BME280;22296;50.824;5.644;2023-01-25T00:07:47;102698.25;;;11.75;55.71
36260;BME280;22296;50.824;5.644;2023-01-25T00:10:14;102694.91;;;11.73;55.88
36260;BME280;22296;50.824;5.644;2023-01-25T00:12:41;102697.16;;;11.76;55.61
36260;BME280;22296;50.824;5.644;2023-01-25T00:15:08;102689.50;;;11.83;55.36
36260;BME280;22296;50.824;5.644;2023-01-25T00:17:35;102692.66;;;11.70;55.76
36260;BME280;22296;50.824;5.644;2023-01-25T00:20:02;102683.84;;;11.73;55.61
36260;BME280;22296;50.824;5.644;2023-01-25T00:22:29;102689.03;;;11.70;55.81
36260;BME280;22296;50.824;5.644;2023-01-25T00:24:56;102680.88;;;11.63;56.01
36260;BME280;22296;50.824;5.644;2023-01-25T00:27:23;102685.00;;;11.61;55.91
36260;BME280;22296;50.824;5.644;2023-01-25T00:29:49;102680.81;;;11.58;56.06
36260;BME280;22296;50.824;5.644;2023-01-25T00:34:44;102674.88;;;11.50;56.44
36260;BME280;22296;50.824;5.644;2023-01-25T00:39:39;102674.47;;;11.41;56.72
36260;BME280;22296;50.824;5.644;2023-01-25T00:42:10;102675.31;;;11.41;56.34
36260;BME280;22296;50.824;5.644;2023-01-25T00:44:39;102668.44;;;11.44;56.38
36260;BME280;22296;50.824;5.644;2023-01-25T00:47:09;102670.44;;;11.32;56.80
36260;BME280;22296;50.824;5.644;2023-01-25T00:49:37;102671.28;;;11.32;56.66
36260;BME280;22296;50.824;5.644;2023-01-25T00:52:07;102658.53;;;11.31;56.89
36260;BME280;22296;50.824;5.644;2023-01-25T00:54:34;102665.19;;;11.30;56.78
36260;BME280;22296;50.824;5.644;2023-01-25T00:57:02;102657.63;;;11.26;56.75
36260;BME280;22296;50.824;5.644;2023-01-25T00:59:29;102656.56;;;11.27;56.73
36260;BME280;22296;50.824;5.644;2023-01-25T01:01:56;102660.41;;;11.26;56.76
36260;BME280;22296;50.824;5.644;2023-01-25T01:04:23;102660.91;;;11.23;56.93
36260;BME280;22296;50.824;5.644;2023-01-25T01:06:53;102657.06;;;11.24;56.78
36260;BME280;22296;50.824;5.644;2023-01-25T01:09:22;102654.78;;;11.21;56.89
36260;BME280;22296;50.824;5.644;2023-01-25T01:11:51;102656.97;;;11.19;57.02
36260;BME280;22296;50.824;5.644;2023-01-25T01:14:18;102652.53;;;11.18;57.01
36260;BME280;22296;50.824;5.644;2023-01-25T01:16:45;102660.25;;;11.16;56.95
36260;BME280;22296;50.824;5.644;2023-01-25T01:19:30;102658.56;;;11.15;57.13
36260;BME280;22296;50.824;5.644;2023-01-25T01:21:57;102657.63;;;11.09;57.23
36260;BME280;22296;50.824;5.644;2023-01-25T01:24:27;102641.31;;;11.08;57.50
36260;BME280;22296;50.824;5.644;2023-01-25T01:26:54;102640.16;;;11.04;57.55
36260;BME280;22296;50.824;5.644;2023-01-25T01:29:21;102647.66;;;11.08;57.19
36260;BME280;22296;50.824;5.644;2023-01-25T01:31:49;102640.00;;;11.10;57.21
36260;BME280;22296;50.824;5.644;2023-01-25T01:34:21;102645.31;;;11.00;57.58
36260;BME280;22296;50.824;5.644;2023-01-25T01:39:33;102644.97;;;10.97;57.56
36260;BME280;22296;50.824;5.644;2023-01-25T01:42:00;102641.16;;;10.98;57.54
36260;BME280;22296;50.824;5.644;2023-01-25T01:44:53;102645.31;;;11.00;57.31
36260;BME280;22296;50.824;5.644;2023-01-25T01:47:28;102639.22;;;10.98;57.44
36260;BME280;22296;50.824;5.644;2023-01-25T01:50:04;102649.34;;;10.93;57.73
36260;BME280;22296;50.824;5.644;2023-01-25T01:52:36;102643.63;;;10.99;57.19
36260;BME280;22296;50.824;5.644;2023-01-25T01:55:10;102645.97;;;10.91;57.62
36260;BME280;22296;50.824;5.644;2023-01-25T01:57:43;102642.97;;;10.92;57.54
36260;BME280;22296;50.824;5.644;2023-01-25T02:00:17;102652.59;;;10.90;57.62
36260;BME280;22296;50.824;5.644;2023-01-25T02:02:45;102647.31;;;10.88;57.76
36260;BME280;22296;50.824;5.644;2023-01-25T02:05:21;102640.13;;;10.87;57.63
36260;BME280;22296;50.824;5.644;2023-01-25T02:07:51;102652.19;;;10.98;57.22
36260;BME280;22296;50.824;5.644;2023-01-25T02:10:20;102652.69;;;10.95;57.13
36260;BME280;22296;50.824;5.644;2023-01-25T02:12:50;102647.16;;;10.95;57.13
36260;BME280;22296;50.824;5.644;2023-01-25T02:15:17;102648.72;;;10.91;57.35
36260;BME280;22296;50.824;5.644;2023-01-25T02:17:43;102640.97;;;10.88;57.27
36260;BME280;22296;50.824;5.644;2023-01-25T02:20:38;102640.56;;;10.96;57.16
36260;BME280;22296;50.824;5.644;2023-01-25T02:25:47;102648.16;;;10.88;57.19
36260;BME280;22296;50.824;5.644;2023-01-25T02:31:10;102647.00;;;10.84;57.38
36260;BME280;22296;50.824;5.644;2023-01-25T02:33:38;102645.81;;;10.80;57.24
36260;BME280;22296;50.824;5.644;2023-01-25T02:41:34;102640.88;;;10.82;57.42
36260;BME280;22296;50.824;5.644;2023-01-25T02:44:07;102639.53;;;10.85;57.05
36260;BME280;22296;50.824;5.644;2023-01-25T02:46:37;102646.31;;;10.77;57.47
36260;BME280;22296;50.824;5.644;2023-01-25T02:49:06;102634.19;;;10.78;57.36
36260;BME280;22296;50.824;5.644;2023-01-25T02:51:35;102635.94;;;10.84;57.23
36260;BME280;22296;50.824;5.644;2023-01-25T02:54:04;102627.91;;;10.83;57.31
36260;BME280;22296;50.824;5.644;2023-01-25T02:56:33;102624.81;;;10.79;57.03
36260;BME280;22296;50.824;5.644;2023-01-25T02:59:01;102623.22;;;10.83;57.16
36260;BME280;22296;50.824;5.644;2023-01-25T03:01:37;102628.56;;;10.73;57.46
36260;BME280;22296;50.824;5.644;2023-01-25T03:04:06;102626.97;;;10.77;57.19
36260;BME280;22296;50.824;5.644;2023-01-25T03:06:34;102625.28;;;10.76;57.31
36260;BME280;22296;50.824;5.644;2023-01-25T03:09:02;102624.22;;;10.77;56.98
36260;BME280;22296;50.824;5.644;2023-01-25T03:11:30;102615.38;;;10.75;57.13
36260;BME280;22296;50.824;5.644;2023-01-25T03:13:59;102623.22;;;10.83;56.94
36260;BME280;22296;50.824;5.644;2023-01-25T03:16:27;102625.91;;;10.78;56.98
36260;BME280;22296;50.824;5.644;2023-01-25T03:18:54;102622.66;;;10.81;56.99
36260;BME280;22296;50.824;5.644;2023-01-25T03:21:23;102620.88;;;10.75;57.20
36260;BME280;22296;50.824;5.644;2023-01-25T03:23:58;102627.81;;;10.78;57.20
36260;BME280;22296;50.824;5.644;2023-01-25T03:26:29;102626.41;;;10.75;57.10
36260;BME280;22296;50.824;5.644;2023-01-25T03:29:15;102623.78;;;10.69;57.46
36260;BME280;22296;50.824;5.644;2023-01-25T03:31:44;102622.72;;;10.70;57.22
36260;BME280;22296;50.824;5.644;2023-01-25T03:34:13;102628.06;;;10.76;57.00
36260;BME280;22296;50.824;5.644;2023-01-25T03:36:41;102622.38;;;10.83;56.64
36260;BME280;22296;50.824;5.644;2023-01-25T03:39:08;102622.53;;;10.76;56.83
36260;BME280;22296;50.824;5.644;2023-01-25T03:41:39;102621.22;;;10.79;56.94
36260;BME280;22296;50.824;5.644;2023-01-25T03:44:09;102615.03;;;10.72;57.07
36260;BME280;22296;50.824;5.644;2023-01-25T03:46:40;102615.38;;;10.75;56.86
36260;BME280;22296;50.824;5.644;2023-01-25T03:49:08;102614.38;;;10.81;56.83
36260;BME280;22296;50.824;5.644;2023-01-25T03:51:35;102609.84;;;10.75;56.89
36260;BME280;22296;50.824;5.644;2023-01-25T03:54:02;102613.69;;;10.74;57.01
36260;BME280;22296;50.824;5.644;2023-01-25T03:56:31;102614.25;;;10.76;56.88
36260;BME280;22296;50.824;5.644;2023-01-25T03:59:10;102609.59;;;10.77;56.82
36260;BME280;22296;50.824;5.644;2023-01-25T04:01:37;102609.22;;;10.73;56.99
36260;BME280;22296;50.824;5.644;2023-01-25T04:04:04;102607.50;;;10.67;57.05
36260;BME280;22296;50.824;5.644;2023-01-25T04:06:32;102607.50;;;10.67;57.01
36260;BME280;22296;50.824;5.644;2023-01-25T04:08:59;102606.88;;;10.65;57.00
36260;BME280;22296;50.824;5.644;2023-01-25T04:11:33;102610.25;;;10.67;56.91
36260;BME280;22296;50.824;5.644;2023-01-25T04:14:00;102602.47;;;10.64;57.04
36260;BME280;22296;50.824;5.644;2023-01-25T04:16:33;102605.38;;;10.58;57.24
36260;BME280;22296;50.824;5.644;2023-01-25T04:19:27;102601.28;;;10.60;57.28
36260;BME280;22296;50.824;5.644;2023-01-25T04:21:57;102601.28;;;10.60;57.11
36260;BME280;22296;50.824;5.644;2023-01-25T04:24:30;102597.28;;;10.68;56.85
36260;BME280;22296;50.824;5.644;2023-01-25T04:26:57;102590.75;;;10.57;57.56
36260;BME280;22296;50.824;5.644;2023-01-25T04:29:25;102588.91;;;10.63;57.02
36260;BME280;22296;50.824;5.644;2023-01-25T04:32:08;102582.72;;;10.56;57.39
36260;BME280;22296;50.824;5.644;2023-01-25T04:34:35;102585.72;;;10.54;57.32
36260;BME280;22296;50.824;5.644;2023-01-25T04:37:02;102588.56;;;10.59;57.12
36260;BME280;22296;50.824;5.644;2023-01-25T04:39:35;102589.56;;;10.53;57.43
36260;BME280;22296;50.824;5.644;2023-01-25T04:42:02;102579.63;;;10.52;57.41
36260;BME280;22296;50.824;5.644;2023-01-25T04:44:29;102593.50;;;10.57;57.27
36260;BME280;22296;50.824;5.644;2023-01-25T04:46:57;102583.53;;;10.56;57.17
36260;BME280;22296;50.824;5.644;2023-01-25T04:49:23;102573.00;;;10.53;57.25
36260;BME280;22296;50.824;5.644;2023-01-25T04:51:50;102570.34;;;10.58;57.12
36260;BME280;22296;50.824;5.644;2023-01-25T04:54:17;102565.25;;;10.50;57.26
36260;BME280;22296;50.824;5.644;2023-01-25T04:56:44;102569.09;;;10.49;57.33
36260;BME280;22296;50.824;5.644;2023-01-25T04:59:11;102562.28;;;10.40;57.51
36260;BME280;22296;50.824;5.644;2023-01-25T05:01:37;102563.38;;;10.39;57.53
36260;BME280;22296;50.824;5.644;2023-01-25T05:04:05;102554.59;;;10.42;57.50
36260;BME280;22296;50.824;5.644;2023-01-25T05:06:39;102556.28;;;10.43;57.41
36260;BME280;22296;50.824;5.644;2023-01-25T05:09:05;102555.22;;;10.44;57.51
36260;BME280;22296;50.824;5.644;2023-01-25T05:11:33;102547.91;;;10.38;57.55
36260;BME280;22296;50.824;5.644;2023-01-25T05:14:05;102552.44;;;10.44;57.29
36260;BME280;22296;50.824;5.644;2023-01-25T05:16:32;102557.13;;;10.44;57.51
36260;BME280;22296;50.824;5.644;2023-01-25T05:19:01;102550.06;;;10.36;57.59
36260;BME280;22296;50.824;5.644;2023-01-25T05:21:37;102548.34;;;10.47;57.15
36260;BME280;22296;50.824;5.644;2023-01-25T05:24:27;102544.06;;;10.39;57.56
36260;BME280;22296;50.824;5.644;2023-01-25T05:26:57;102557.75;;;10.34;57.60
36260;BME280;22296;50.824;5.644;2023-01-25T05:29:41;102546.81;;;10.39;57.45
36260;BME280;22296;50.824;5.644;2023-01-25T05:32:17;102551.53;;;10.39;57.60
36260;BME280;22296;50.824;5.644;2023-01-25T05:34:46;102546.16;;;10.32;57.88
36260;BME280;22296;50.824;5.644;2023-01-25T05:37:19;102547.72;;;10.28;57.93
36260;BME280;22296;50.824;5.644;2023-01-25T05:39:52;102542.69;;;10.25;57.76
36260;BME280;22296;50.824;5.644;2023-01-25T05:42:19;102537.38;;;10.35;57.50
36260;BME280;22296;50.824;5.644;2023-01-25T05:44:46;102547.31;;;10.36;57.40
36260;BME280;22296;50.824;5.644;2023-01-25T05:47:16;102546.59;;;10.41;57.19
36260;BME280;22296;50.824;5.644;2023-01-25T05:49:44;102548.50;;;10.40;57.33
36260;BME280;22296;50.824;5.644;2023-01-25T05:52:18;102544.56;;;10.36;57.58
36260;BME280;22296;50.824;5.644;2023-01-25T05:54:45;102535.22;;;10.37;57.44
36260;BME280;22296;50.824;5.644;2023-01-25T05:57:14;102536.03;;;10.21;58.00
36260;BME280;22296;50.824;5.644;2023-01-25T05:59:41;102526.84;;;10.32;57.47
36260;BME280;22296;50.824;5.644;2023-01-25T06:02:10;102538.50;;;10.22;57.98
36260;BME280;22296;50.824;5.644;2023-01-25T06:04:38;102529.75;;;10.25;57.53
36260;BME280;22296;50.824;5.644;2023-01-25T06:07:05;102537.03;;;10.32;57.42
36260;BME280;22296;50.824;5.644;2023-01-25T06:09:34;102530.94;;;10.29;57.58
36260;BME280;22296;50.824;5.644;2023-01-25T06:12:01;102526.94;;;10.09;58.67
36260;BME280;22296;50.824;5.644;2023-01-25T06:14:29;102526.06;;;10.20;58.48
36260;BME280;22296;50.824;5.644;2023-01-25T06:16:56;102525.84;;;10.10;58.60
36260;BME280;22296;50.824;5.644;2023-01-25T06:19:45;102529.31;;;10.17;58.54
36260;BME280;22296;50.824;5.644;2023-01-25T06:22:34;102531.09;;;10.23;58.12
36260;BME280;22296;50.824;5.644;2023-01-25T06:25:01;102534.84;;;10.17;58.27
36260;BME280;22296;50.824;5.644;2023-01-25T06:27:28;102528.16;;;10.13;58.39
36260;BME280;22296;50.824;5.644;2023-01-25T06:29:58;102529.19;;;10.12;58.60
36260;BME280;22296;50.824;5.644;2023-01-25T06:32:24;102529.69;;;10.09;58.16
36260;BME280;22296;50.824;5.644;2023-01-25T06:34:52;102528.16;;;10.13;58.32
36260;BME280;22296;50.824;5.644;2023-01-25T06:37:22;102526.94;;;10.09;58.34
36260;BME280;22296;50.824;5.644;2023-01-25T06:39:49;102519.41;;;10.04;58.24
36260;BME280;22296;50.824;5.644;2023-01-25T06:42:16;102519.72;;;10.08;58.45
36260;BME280;22296;50.824;5.644;2023-01-25T06:44:42;102519.72;;;10.08;58.51
36260;BME280;22296;50.824;5.644;2023-01-25T06:47:10;102530.09;;;10.01;58.46
36260;BME280;22296;50.824;5.644;2023-01-25T06:49:37;102527.91;;;10.03;58.25
36260;BME280;22296;50.824;5.644;2023-01-25T06:52:04;102523.16;;;9.98;58.62
36260;BME280;22296;50.824;5.644;2023-01-25T06:54:31;102523.88;;;9.94;58.53
36260;BME280;22296;50.824;5.644;2023-01-25T06:56:58;102517.38;;;10.00;58.38
36260;BME280;22296;50.824;5.644;2023-01-25T06:59:25;102522.53;;;9.96;58.56
36260;BME280;22296;50.824;5.644;2023-01-25T07:01:51;102516.72;;;9.93;58.50
36260;BME280;22296;50.824;5.644;2023-01-25T07:04:18;102514.63;;;10.00;58.21
36260;BME280;22296;50.824;5.644;2023-01-25T07:06:45;102509.03;;;9.95;58.34
36260;BME280;22296;50.824;5.644;2023-01-25T07:09:12;102510.31;;;10.04;58.05
36260;BME280;22296;50.824;5.644;2023-01-25T07:11:39;102517.19;;;9.90;58.59
36260;BME280;22296;50.824;5.644;2023-01-25T07:14:09;102517.34;;;9.83;58.68
36260;BME280;22296;50.824;5.644;2023-01-25T07:16:36;102516.50;;;9.83;58.77
36260;BME280;22296;50.824;5.644;2023-01-25T07:19:09;102522.59;;;9.85;58.65
36260;BME280;22296;50.824;5.644;2023-01-25T07:21:36;102521.50;;;9.86;58.45
36260;BME280;22296;50.824;5.644;2023-01-25T07:24:04;102514.94;;;9.87;58.50
36260;BME280;22296;50.824;5.644;2023-01-25T07:26:31;102513.81;;;9.88;58.38
36260;BME280;22296;50.824;5.644;2023-01-25T07:28:58;102513.81;;;9.88;58.52
36260;BME280;22296;50.824;5.644;2023-01-25T07:31:26;102515.03;;;9.92;58.28
36260;BME280;22296;50.824;5.644;2023-01-25T07:33:56;102512.25;;;9.92;58.11
36260;BME280;22296;50.824;5.644;2023-01-25T07:36:24;102513.81;;;9.88;58.27
36260;BME280;22296;50.824;5.644;2023-01-25T07:38:55;102518.66;;;9.81;58.51
36260;BME280;22296;50.824;5.644;2023-01-25T07:41:24;102520.59;;;9.68;58.93
36260;BME280;22296;50.824;5.644;2023-01-25T07:43:50;102516.97;;;9.80;58.60
36260;BME280;22296;50.824;5.644;2023-01-25T07:46:40;102520.81;;;9.79;58.35
36260;BME280;22296;50.824;5.644;2023-01-25T07:49:07;102528.00;;;9.80;58.55
36260;BME280;22296;50.824;5.644;2023-01-25T07:51:34;102527.03;;;9.86;58.39
36260;BME280;22296;50.824;5.644;2023-01-25T07:54:02;102527.28;;;9.84;58.13
36260;BME280;22296;50.824;5.644;2023-01-25T07:56:32;102526.84;;;9.76;58.52
36260;BME280;22296;50.824;5.644;2023-01-25T07:59:00;102527.03;;;9.86;58.41
36260;BME280;22296;50.824;5.644;2023-01-25T08:01:30;102528.09;;;9.85;58.64
36260;BME280;22296;50.824;5.644;2023-01-25T08:04:01;102526.09;;;9.80;58.45
36260;BME280;22296;50.824;5.644;2023-01-25T08:06:30;102530.16;;;9.78;58.80
36260;BME280;22296;50.824;5.644;2023-01-25T08:09:04;102528.72;;;9.87;58.63
36260;BME280;22296;50.824;5.644;2023-01-25T08:11:31;102514.63;;;10.00;58.12
36260;BME280;22296;50.824;5.644;2023-01-25T08:13:58;102519.16;;;10.06;58.31
36260;BME280;22296;50.824;5.644;2023-01-25T08:16:27;102517.13;;;10.13;57.83
36260;BME280;22296;50.824;5.644;2023-01-25T08:18:57;102517.31;;;10.23;57.95
36260;BME280;22296;50.824;5.644;2023-01-25T08:21:26;102505.13;;;10.36;57.57
36260;BME280;22296;50.824;5.644;2023-01-25T08:23:59;102505.44;;;10.39;57.71
36260;BME280;22296;50.824;5.644;2023-01-25T08:26:27;102506.13;;;10.46;57.28
36260;BME280;22296;50.824;5.644;2023-01-25T08:28:54;102509.91;;;10.57;57.13
36260;BME280;22296;50.824;5.644;2023-01-25T08:31:31;102516.81;;;10.59;57.28
36260;BME280;22296;50.824;5.644;2023-01-25T08:33:59;102511.56;;;10.74;56.88
36260;BME280;22296;50.824;5.644;2023-01-25T08:36:26;102509.50;;;10.81;56.74
36260;BME280;22296;50.824;5.644;2023-01-25T08:38:56;102504.28;;;10.85;56.61
36260;BME280;22296;50.824;5.644;2023-01-25T08:41:23;102510.81;;;10.96;56.36
36260;BME280;22296;50.824;5.644;2023-01-25T08:43:52;102502.25;;;10.97;56.42
36260;BME280;22296;50.824;5.644;2023-01-25T08:46:20;102511.28;;;11.09;56.50
36260;BME280;22296;50.824;5.644;2023-01-25T08:48:47;102507.75;;;11.74;55.20
36260;BME280;22296;50.824;5.644;2023-01-25T08:51:15;102500.19;;;12.13;54.35
36260;BME280;22296;50.824;5.644;2023-01-25T08:53:42;102495.63;;;12.28;54.14
36260;BME280;22296;50.824;5.644;2023-01-25T08:56:12;102500.47;;;12.43;53.81
36260;BME280;22296;50.824;5.644;2023-01-25T08:58:42;102496.13;;;12.52;53.38
36260;BME280;22296;50.824;5.644;2023-01-25T09:01:11;102493.50;;;12.67;53.37
36260;BME280;22296;50.824;5.644;2023-01-25T09:03:46;102491.94;;;12.81;53.10
36260;BME280;22296;50.824;5.644;2023-01-25T09:06:13;102489.44;;;12.80;53.04
36260;BME280;22296;50.824;5.644;2023-01-25T09:08:41;102485.50;;;12.39;54.07
36260;BME280;22296;50.824;5.644;2023-01-25T09:11:10;102483.06;;;12.16;54.42
36260;BME280;22296;50.824;5.644;2023-01-25T09:13:37;102477.22;;;12.12;54.55
36260;BME280;22296;50.824;5.644;2023-01-25T09:16:06;102470.84;;;12.12;54.44
36260;BME280;22296;50.824;5.644;2023-01-25T09:18:35;102473.03;;;12.10;54.64
36260;BME280;22296;50.824;5.644;2023-01-25T09:21:07;102470.31;;;12.15;54.41
36260;BME280;22296;50.824;5.644;2023-01-25T09:23:34;102468.16;;;12.17;54.34
36260;BME280;22296;50.824;5.644;2023-01-25T09:26:21;102478.66;;;12.20;54.39
36260;BME280;22296;50.824;5.644;2023-01-25T09:28:49;102474.81;;;12.21;54.30
36260;BME280;22296;50.824;5.644;2023-01-25T09:31:18;102470.69;;;12.23;54.21
36260;BME280;22296;50.824;5.644;2023-01-25T09:34:00;102476.84;;;12.30;54.14
36260;BME280;22296;50.824;5.644;2023-01-25T09:36:28;102473.25;;;12.30;54.05
36260;BME280;22296;50.824;5.644;2023-01-25T09:38:55;102478.25;;;12.33;53.78
36260;BME280;22296;50.824;5.644;2023-01-25T09:46:48;102466.97;;;12.39;53.77
36260;BME280;22296;50.824;5.644;2023-01-25T09:54:42;102466.50;;;12.47;53.50
36260;BME280;22296;50.824;5.644;2023-01-25T09:57:35;102461.81;;;12.53;53.47
36260;BME280;22296;50.824;5.644;2023-01-25T10:00:18;102468.44;;;12.52;53.52
36260;BME280;22296;50.824;5.644;2023-01-25T10:05:46;102458.56;;;12.61;53.35
36260;BME280;22296;50.824;5.644;2023-01-25T10:08:50;102460.25;;;12.62;53.12
36260;BME280;22296;50.824;5.644;2023-01-25T10:11:27;102452.53;;;12.69;53.03
36260;BME280;22296;50.824;5.644;2023-01-25T10:13:55;102454.75;;;12.72;53.08
36260;BME280;22296;50.824;5.644;2023-01-25T10:22:04;102449.31;;;12.82;52.83
36260;BME280;22296;50.824;5.644;2023-01-25T10:30:35;102448.25;;;12.88;52.70
36260;BME280;22296;50.824;5.644;2023-01-25T10:33:14;102447.66;;;12.86;52.49
36260;BME280;22296;50.824;5.644;2023-01-25T10:35:45;102445.19;;;12.90;52.85
36260;BME280;22296;50.824;5.644;2023-01-25T10:38:39;102440.53;;;12.95;52.41
36260;BME280;22296;50.824;5.644;2023-01-25T10:41:33;102437.69;;;12.85;52.67
36260;BME280;22296;50.824;5.644;2023-01-25T10:44:02;102434.41;;;12.88;52.76
36260;BME280;22296;50.824;5.644;2023-01-25T10:49:48;102427.81;;;12.99;52.56
36260;BME280;22296;50.824;5.644;2023-01-25T10:54:59;102413.38;;;12.97;52.42
36260;BME280;22296;50.824;5.644;2023-01-25T10:57:31;102412.84;;;13.00;52.84
36260;BME280;22296;50.824;5.644;2023-01-25T11:00:05;102413.38;;;12.97;52.53
36260;BME280;22296;50.824;5.644;2023-01-25T11:02:45;102399.28;;;12.99;52.46
36260;BME280;22296;50.824;5.644;2023-01-25T11:05:35;102402.03;;;12.94;52.56
36260;BME280;22296;50.824;5.644;2023-01-25T11:08:23;102396.22;;;13.00;52.59
36260;BME280;22296;50.824;5.644;2023-01-25T11:10:51;102396.22;;;13.00;52.49
36260;BME280;22296;50.824;5.644;2023-01-25T11:13:20;102385.44;;;12.99;52.35
36260;BME280;22296;50.824;5.644;2023-01-25T11:18:29;102381.81;;;12.98;52.65
36260;BME280;22296;50.824;5.644;2023-01-25T11:23:37;102377.13;;;12.99;52.25
36260;BME280;22296;50.824;5.644;2023-01-25T11:26:14;102377.13;;;12.99;52.60
36260;BME280;22296;50.824;5.644;2023-01-25T11:28:42;102372.16;;;13.01;52.44
36260;BME280;22296;50.824;5.644;2023-01-25T11:31:16;102363.00;;;13.00;52.38
36260;BME280;22296;50.824;5.644;2023-01-25T11:33:46;102356.91;;;13.03;52.42
36260;BME280;22296;50.824;5.644;2023-01-25T11:53:51;102324.22;;;13.00;52.48
36260;BME280;22296;50.824;5.644;2023-01-25T11:56:53;102313.69;;;12.97;52.62
36260;BME280;22296;50.824;5.644;2023-01-25T12:02:41;102294.28;;;12.97;52.42
36260;BME280;22296;50.824;5.644;2023-01-25T12:05:30;102290.72;;;12.97;52.45
36260;BME280;22296;50.824;5.644;2023-01-25T12:13:58;102266.09;;;13.05;52.20
36260;BME280;22296;50.824;5.644;2023-01-25T12:21:46;102250.06;;;13.12;52.25
36260;BME280;22296;50.824;5.644;2023-01-25T12:24:48;102237.88;;;13.13;52.13
36260;BME280;22296;50.824;5.644;2023-01-25T12:30:30;102224.59;;;13.21;52.05
36260;BME280;22296;50.824;5.644;2023-01-25T12:33:14;102212.41;;;13.22;51.91
36260;BME280;22296;50.824;5.644;2023-01-25T12:35:47;102211.31;;;13.23;52.05
36260;BME280;22296;50.824;5.644;2023-01-25T12:38:31;102199.69;;;13.26;52.00
36260;BME280;22296;50.824;5.644;2023-01-25T12:44:26;102186.94;;;13.25;52.09
36260;BME280;22296;50.824;5.644;2023-01-25T12:47:06;102175.84;;;13.25;52.09
36260;BME280;22296;50.824;5.644;2023-01-25T12:55:01;102148.13;;;13.25;52.32
36260;BME280;22296;50.824;5.644;2023-01-25T12:57:38;102135.38;;;13.24;52.16
36260;BME280;22296;50.824;5.644;2023-01-25T13:00:25;102145.91;;;13.27;52.34
36260;BME280;22296;50.824;5.644;2023-01-25T13:05:49;102142.06;;;13.23;52.26
36260;BME280;22296;50.824;5.644;2023-01-25T13:08:55;102125.44;;;13.23;52.39
36260;BME280;22296;50.824;5.644;2023-01-25T13:11:30;102119.59;;;13.24;52.17
36260;BME280;22296;50.824;5.644;2023-01-25T13:14:40;102116.53;;;13.21;52.47
36260;BME280;22296;50.824;5.644;2023-01-25T13:19:50;102104.91;;;13.19;52.46
36260;BME280;22296;50.824;5.644;2023-01-25T13:25:22;102101.59;;;13.17;52.56
36260;BME280;22296;50.824;5.644;2023-01-25T13:28:37;102100.78;;;13.16;52.34
36260;BME280;22296;50.824;5.644;2023-01-25T13:30:54;102092.72;;;13.14;52.71
36260;BME280;22296;50.824;5.644;2023-01-25T13:33:32;102098.25;;;13.14;52.43
36260;BME280;22296;50.824;5.644;2023-01-25T13:42:16;102086.38;;;13.14;52.59
36260;BME280;22296;50.824;5.644;2023-01-25T13:44:46;102081.63;;;13.14;52.46
36260;BME280;22296;50.824;5.644;2023-01-25T13:47:19;102085.53;;;13.13;52.35
36260;BME280;22296;50.824;5.644;2023-01-25T13:53:04;102079.44;;;13.11;52.81
36260;BME280;22296;50.824;5.644;2023-01-25T13:55:40;102071.94;;;13.12;52.83
36260;BME280;22296;50.824;5.644;2023-01-25T14:00:35;102072.78;;;13.18;52.33
36260;BME280;22296;50.824;5.644;2023-01-25T14:03:04;102073.06;;;13.21;52.44
36260;BME280;22296;50.824;5.644;2023-01-25T14:05:32;102068.34;;;13.22;52.41
36260;BME280;22296;50.824;5.644;2023-01-25T14:07:59;102065.59;;;13.22;52.17
36260;BME280;22296;50.824;5.644;2023-01-25T14:10:26;102067.25;;;13.23;52.43
36260;BME280;22296;50.824;5.644;2023-01-25T14:12:58;102065.31;;;13.18;52.64
36260;BME280;22296;50.824;5.644;2023-01-25T14:15:30;102065.88;;;13.25;52.42
36260;BME280;22296;50.824;5.644;2023-01-25T14:18:12;102060.03;;;13.27;52.19
36260;BME280;22296;50.824;5.644;2023-01-25T14:20:46;102061.41;;;13.29;52.32
36260;BME280;22296;50.824;5.644;2023-01-25T14:25:46;102063.34;;;13.34;52.35
36260;BME280;22296;50.824;5.644;2023-01-25T14:28:13;102061.16;;;13.31;52.31
36260;BME280;22296;50.824;5.644;2023-01-25T14:30:40;102060.00;;;13.32;52.19
36260;BME280;22296;50.824;5.644;2023-01-25T14:33:17;102063.34;;;13.34;52.28
36260;BME280;22296;50.824;5.644;2023-01-25T14:35:49;102060.00;;;13.32;52.17
36260;BME280;22296;50.824;5.644;2023-01-25T14:41:19;102048.94;;;13.32;52.14
36260;BME280;22296;50.824;5.644;2023-01-25T14:43:48;102041.75;;;13.31;52.08
36260;BME280;22296;50.824;5.644;2023-01-25T14:46:28;102040.34;;;13.33;52.19
36260;BME280;22296;50.824;5.644;2023-01-25T14:49:19;102033.97;;;13.33;52.11
36260;BME280;22296;50.824;5.644;2023-01-25T14:52:01;102038.13;;;13.35;53.79
36260;BME280;22296;50.824;5.644;2023-01-25T14:54:31;102047.25;;;13.51;52.89
36260;BME280;22296;50.824;5.644;2023-01-25T14:57:05;102033.38;;;13.56;52.60
36260;BME280;22296;50.824;5.644;2023-01-25T15:02:23;102029.47;;;13.52;53.00
36260;BME280;22296;50.824;5.644;2023-01-25T15:04:53;102023.94;;;13.57;52.86
36260;BME280;22296;50.824;5.644;2023-01-25T15:10:26;102033.91;;;13.63;52.71
36260;BME280;22296;50.824;5.644;2023-01-25T15:15:56;102033.88;;;13.68;52.90
36260;BME280;22296;50.824;5.644;2023-01-25T15:21:23;102035.53;;;13.74;52.99
36260;BME280;22296;50.824;5.644;2023-01-25T15:23:52;102034.13;;;13.77;52.71
36260;BME280;22296;50.824;5.644;2023-01-25T15:26:25;102029.97;;;13.79;52.75
36260;BME280;22296;50.824;5.644;2023-01-25T15:28:55;102029.97;;;13.79;52.80